CYWH

Victoria Harbour Seaplane Base

Victoria, British Columbia, Canada
METAR CYWH 130500Z 11006KT 8SM -RA FEW004 OVC035 08/06 A2999 RMK SF1SC7 LAST STFD OBS/NEXT 131400 UTC SLP156
Observed Flight Rules
Dec-13 @ 05:00 UTC (6 hours ago) Visual Flight Rules
Wind Visibility Clouds Conditions
110° at 6 knots 8 miles
  • Few at 400' AGL
  • Overcast at 3,500' AGL
  • Light Rain
Temperatures Readings
Current 8°C / 46°F
Dewpoint 6°C / 43°F
Humidity 87%
Altimeter 29.99" Hg
Pressure 1015.6 hPa
Elevation 10
METAR CYWH 130500Z 11006KT 8SM -RA FEW004 OVC035 08/06 A2999 RMK SF1SC7 LAST STFD OBS/NEXT 131400 UTC SLP156
Observed Flight Rules
Dec-13 @ 05:00 UTC
(6 hours ago)
VFR
Wind Visibility
110° at 6 knots 8 miles
Clouds
  • Few at 400' AGL
  • Overcast at 3,500' AGL
Conditions
  • Light Rain
Temperature Dewpoint
8°C / 46°F 6°C / 43°F
Humidity Altimeter Pressure
87% 29.99" Hg 1015.6 hPa